Denver, Iowa
Current Conditions -  °F | °C
As of 3:54 AM on Sunday 23 Nov 2014 (Local Time) from KALO Reporting Station
Haze Haze  
Wind Chill: 50°   Ceiling: 600
Heat Index: 50°   Visibility: 5mi
Dew Point: 50°   Wind: 16mph
Humidity: 100%   Direction: 170°S
Pressure: 29.57"   Gusts: NA
Location:  42.67°N, 92.34°W
Report Text: KALO 230954Z 17014KT 5SM BR OVC006 10/10 A2957 RMK AO2 SLP015 T01000100 $
Loading
Personal Weather Stations






























Interactive Weather Map New forecast layout! Learn more

10-Day Weather Forecast

Advertisements
Track Severe Weather on mobile